Time;durP1;ratioP1;P1;durP2;ratioP2;P2;SDS_P1;SDS_P2;PMS_P1;PMS_P2;Temp;Humidity;BMP_temperature;BMP_pressure;BME280_temperature;BME280_humidity;BME280_pressure;Samples;Min_cycle;Max_cycle;Signal;HPM_P1;HPM_P2
2022/04/18 00:02:07;;;;;;;16.95;10.05;;;9.00;74.40;;;;;;5074349;28;20032;-57
2022/04/18 00:04:35;;;;;;;14.35;10.10;;;8.90;75.00;;;;;;5074316;28;20532;-57
2022/04/18 00:07:01;;;;;;;15.00;9.48;;;8.90;75.00;;;;;;5073006;28;20055;-56
2022/04/18 00:09:29;;;;;;;16.00;10.07;;;8.80;75.40;;;;;;5056103;28;20048;-57
2022/04/18 00:11:56;;;;;;;13.98;9.60;;;8.80;75.60;;;;;;5074201;28;20049;-56
2022/04/18 00:14:21;;;;;;;15.40;9.85;;;8.80;75.10;;;;;;5074428;28;20045;-56
2022/04/18 00:16:47;;;;;;;17.58;10.15;;;8.80;76.20;;;;;;5073888;28;20047;-57
2022/04/18 00:19:13;;;;;;;17.88;10.20;;;8.80;76.20;;;;;;5074039;28;20040;-57
2022/04/18 00:21:38;;;;;;;16.15;10.25;;;8.70;76.30;;;;;;5072432;28;20510;-57
2022/04/18 00:24:04;;;;;;;17.80;10.27;;;8.80;76.20;;;;;;5058648;28;20041;-57
2022/04/18 00:26:30;;;;;;;15.57;9.90;;;8.70;77.30;;;;;;5052564;28;20508;-56
2022/04/18 00:28:56;;;;;;;15.32;10.50;;;8.70;77.20;;;;;;5053957;28;20080;-54
2022/04/18 00:31:21;;;;;;;17.02;10.35;;;8.60;77.50;;;;;;5052773;28;20056;-57
2022/04/18 00:33:47;;;;;;;16.88;10.95;;;8.70;77.90;;;;;;5053650;28;20037;-57
2022/04/18 00:36:13;;;;;;;17.08;10.80;;;8.60;79.10;;;;;;5053473;28;20053;-56
2022/04/18 00:38:38;;;;;;;16.90;10.88;;;8.60;78.50;;;;;;5053583;28;20128;-57
2022/04/18 00:41:05;;;;;;;17.55;11.57;;;8.60;78.10;;;;;;5052625;28;20037;-56
2022/04/18 00:43:41;;;;;;;15.75;10.02;;;8.50;78.70;;;;;;5085859;28;20045;-55
2022/04/18 00:46:07;;;;;;;15.65;9.93;;;8.60;79.60;;;;;;5053441;28;20037;-56
2022/04/18 00:48:34;;;;;;;15.02;10.40;;;8.50;79.70;;;;;;5053762;28;20158;-56
2022/04/18 00:51:00;;;;;;;16.48;9.57;;;8.50;79.80;;;;;;5053309;28;20041;-55
2022/04/18 00:53:26;;;;;;;16.77;10.88;;;8.50;80.00;;;;;;5070382;28;20047;-55
2022/04/18 00:55:52;;;;;;;16.42;10.93;;;8.50;80.40;;;;;;5073272;28;20035;-56
2022/04/18 00:58:18;;;;;;;16.48;10.07;;;8.40;80.90;;;;;;5073070;28;20036;-55
2022/04/18 01:00:44;;;;;;;17.20;10.55;;;8.40;81.20;;;;;;5073181;28;20043;-56
2022/04/18 01:03:11;;;;;;;16.67;10.15;;;8.30;82.10;;;;;;5071926;28;20062;-56
2022/04/18 01:05:37;;;;;;;15.27;10.02;;;8.30;82.70;;;;;;5073087;28;20044;-55
2022/04/18 01:08:05;;;;;;;15.80;10.50;;;8.20;82.70;;;;;;5072998;28;20040;-56
2022/04/18 01:10:30;;;;;;;20.13;11.55;;;8.20;82.30;;;;;;5073063;28;20040;-55
2022/04/18 01:12:56;;;;;;;15.45;9.95;;;8.20;82.70;;;;;;5072803;28;20050;-55
2022/04/18 01:15:22;;;;;;;18.80;10.80;;;8.20;83.50;;;;;;5072890;28;20040;-56
2022/04/18 01:17:47;;;;;;;18.80;10.65;;;8.20;83.30;;;;;;5073030;28;20090;-56
2022/04/18 01:20:13;;;;;;;17.52;10.48;;;8.10;85.20;;;;;;5073076;28;20085;-56
2022/04/18 01:22:42;;;;;;;18.80;11.55;;;8.10;84.60;;;;;;5069830;28;20044;-56
2022/04/18 01:30:37;;;;;;;14.95;10.02;;;8.10;85.00;;;;;;5065733;28;20124;-56
2022/04/18 01:33:03;;;;;;;15.13;10.85;;;8.10;85.70;;;;;;5052513;28;20124;-56
2022/04/18 01:35:29;;;;;;;16.55;10.73;;;8.00;86.90;;;;;;5052790;28;20067;-54
2022/04/18 01:37:55;;;;;;;18.70;10.15;;;8.00;87.80;;;;;;5050836;28;20057;-55
2022/04/18 01:40:20;;;;;;;16.35;10.55;;;8.00;88.30;;;;;;5051333;28;20052;-56
2022/04/18 01:42:46;;;;;;;18.73;11.02;;;7.90;89.20;;;;;;5052903;28;20124;-53
2022/04/18 01:45:12;;;;;;;17.45;10.13;;;8.00;90.00;;;;;;5053238;28;20095;-56
2022/04/18 01:47:38;;;;;;;17.80;10.45;;;7.90;90.30;;;;;;5052910;28;20385;-56
2022/04/18 01:50:04;;;;;;;18.60;10.98;;;7.90;90.80;;;;;;5052378;28;20095;-56
2022/04/18 01:52:30;;;;;;;18.85;10.35;;;7.90;90.80;;;;;;5061569;28;20083;-56
2022/04/18 01:54:56;;;;;;;17.85;11.13;;;7.90;91.00;;;;;;5072345;28;20685;-56
2022/04/18 01:57:22;;;;;;;18.33;10.85;;;7.80;91.10;;;;;;5072260;28;20040;-56
2022/04/18 01:59:47;;;;;;;17.65;11.38;;;7.90;91.40;;;;;;5070877;28;20044;-55
2022/04/18 02:02:13;;;;;;;16.98;10.98;;;7.80;92.10;;;;;;5072349;28;20040;-56
2022/04/18 02:04:39;;;;;;;17.08;10.68;;;7.80;92.20;;;;;;5072362;28;20052;-56
2022/04/18 02:07:04;;;;;;;18.58;10.85;;;7.70;92.10;;;;;;5072101;28;20040;-57
2022/04/18 02:09:30;;;;;;;18.00;11.07;;;7.60;93.00;;;;;;5072246;28;20040;-56
2022/04/18 02:11:56;;;;;;;15.23;9.70;;;7.60;93.50;;;;;;5072016;28;20052;-57
2022/04/18 02:14:21;;;;;;;17.17;10.70;;;7.60;93.80;;;;;;5072108;28;20045;-56
2022/04/18 02:16:47;;;;;;;18.20;11.43;;;7.60;93.90;;;;;;5072285;28;20037;-57
2022/04/18 02:19:13;;;;;;;16.48;10.93;;;7.60;94.30;;;;;;5071969;28;20435;-57
2022/04/18 02:21:38;;;;;;;16.63;10.80;;;7.60;95.00;;;;;;5072438;28;20037;-59
2022/04/18 02:24:04;;;;;;;16.25;10.95;;;7.50;95.00;;;;;;5056859;28;20075;-57
2022/04/18 02:26:30;;;;;;;18.40;11.80;;;7.60;94.50;;;;;;5050859;28;20417;-58
2022/04/18 02:28:56;;;;;;;19.45;11.68;;;7.60;94.60;;;;;;5052485;28;20046;-58
2022/04/18 02:31:22;;;;;;;19.27;11.27;;;7.60;94.40;;;;;;5052010;28;20048;-57
2022/04/18 02:33:48;;;;;;;18.67;11.23;;;7.60;94.90;;;;;;5051372;28;20457;-57
2022/04/18 02:36:13;;;;;;;18.40;11.27;;;7.60;95.00;;;;;;5050553;28;20088;-57
2022/04/18 02:38:39;;;;;;;17.45;11.13;;;7.60;95.00;;;;;;5052049;28;20045;-57
2022/04/18 02:41:05;;;;;;;17.45;10.40;;;7.60;95.00;;;;;;5052464;28;20155;-57
2022/04/18 02:43:30;;;;;;;16.77;10.98;;;7.60;95.20;;;;;;5067197;28;20075;-59
2022/04/18 02:45:56;;;;;;;17.27;11.15;;;7.50;95.40;;;;;;5050593;28;20465;-57
2022/04/18 02:48:22;;;;;;;19.27;11.93;;;7.50;96.40;;;;;;5052195;28;20160;-57
2022/04/18 02:50:48;;;;;;;17.48;10.98;;;7.50;96.20;;;;;;5069649;28;20080;-57
2022/04/18 02:53:14;;;;;;;18.92;11.73;;;7.50;96.40;;;;;;5070052;28;20041;-57
2022/04/18 02:55:40;;;;;;;18.27;11.73;;;7.50;96.40;;;;;;5075789;28;20044;-59
2022/04/18 02:58:06;;;;;;;18.80;12.30;;;7.40;96.40;;;;;;5074560;28;20078;-56
2022/04/18 03:00:32;;;;;;;19.23;11.45;;;7.40;96.60;;;;;;5075956;28;20033;-56
2022/04/18 03:02:57;;;;;;;19.52;11.25;;;7.40;97.30;;;;;;5057846;28;20048;-57
2022/04/18 03:05:23;;;;;;;18.13;12.00;;;7.40;97.20;;;;;;5074390;28;20530;-56
2022/04/18 03:07:49;;;;;;;23.27;12.40;;;7.40;97.50;;;;;;5075620;28;20080;-57
2022/04/18 03:10:15;;;;;;;18.52;12.40;;;7.30;98.00;;;;;;5075755;28;20113;-57
2022/04/18 03:12:40;;;;;;;19.05;12.00;;;7.30;97.90;;;;;;5075085;28;20044;-57
2022/04/18 03:15:08;;;;;;;18.40;11.45;;;7.20;98.60;;;;;;5075535;28;20124;-56
2022/04/18 03:17:34;;;;;;;19.13;11.63;;;7.20;99.00;;;;;;5075522;28;20489;-57
2022/04/18 03:19:59;;;;;;;18.08;11.50;;;7.20;99.40;;;;;;5075822;28;20043;-57
2022/04/18 03:22:25;;;;;;;19.80;11.63;;;7.20;99.60;;;;;;5074539;28;20086;-56
2022/04/18 03:24:53;;;;;;;20.73;11.98;;;7.20;99.70;;;;;;5055486;28;20456;-56
2022/04/18 03:27:20;;;;;;;16.63;11.82;;;7.10;99.90;;;;;;5056072;28;20037;-56
2022/04/18 03:29:46;;;;;;;18.63;12.13;;;7.10;99.90;;;;;;5054973;28;20493;-57
2022/04/18 03:32:11;;;;;;;19.58;13.18;;;7.20;99.90;;;;;;5055347;28;20094;-57
2022/04/18 03:34:37;;;;;;;18.08;11.77;;;7.10;99.90;;;;;;5053991;28;20394;-57
2022/04/18 03:39:50;;;;;;;17.45;10.63;;;7.00;99.90;;;;;;5054587;28;20493;-57
2022/04/18 03:42:29;;;;;;;19.42;11.50;;;7.00;99.90;;;;;;5055506;28;20123;-57
2022/04/18 03:45:04;;;;;;;19.05;10.82;;;7.00;99.90;;;;;;5055340;28;20528;-57
2022/04/18 03:47:29;;;;;;;16.23;11.07;;;6.90;99.90;;;;;;5056368;28;20052;-57
2022/04/18 03:49:56;;;;;;;17.67;11.90;;;6.90;99.90;;;;;;5055270;28;20041;-57
2022/04/18 03:52:23;;;;;;;21.10;11.98;;;6.90;99.90;;;;;;5063387;28;20044;-56
2022/04/18 03:54:49;;;;;;;17.70;10.93;;;6.90;99.90;;;;;;5074783;28;20084;-56
2022/04/18 03:57:15;;;;;;;18.75;11.38;;;6.90;99.90;;;;;;5073450;28;20127;-58
2022/04/18 03:59:41;;;;;;;18.55;11.88;;;6.80;99.90;;;;;;5074379;28;20524;-56
2022/04/18 04:02:08;;;;;;;18.40;11.13;;;6.80;99.90;;;;;;5075459;28;20044;-57
2022/04/18 04:04:34;;;;;;;19.55;12.05;;;6.80;99.90;;;;;;5074472;28;20113;-57
2022/04/18 04:06:59;;;;;;;17.98;11.40;;;6.70;99.90;;;;;;5074743;28;20473;-52
2022/04/18 04:09:25;;;;;;;19.08;11.48;;;6.70;99.90;;;;;;5073379;28;20158;-57
2022/04/18 04:11:51;;;;;;;19.80;11.65;;;6.70;99.90;;;;;;5074541;28;20397;-56
2022/04/18 04:14:18;;;;;;;17.45;11.32;;;6.70;99.90;;;;;;5073355;28;20048;-56
2022/04/18 04:16:44;;;;;;;18.67;10.93;;;6.60;99.90;;;;;;5074727;28;20400;-56
2022/04/18 04:19:09;;;;;;;20.30;11.63;;;6.70;99.90;;;;;;5072835;28;20040;-56
2022/04/18 04:21:35;;;;;;;17.33;11.10;;;6.70;99.90;;;;;;5074083;28;20420;-56
2022/04/18 04:24:02;;;;;;;17.67;11.75;;;6.60;99.90;;;;;;5059166;28;20076;-56
2022/04/18 04:26:28;;;;;;;17.88;11.00;;;6.60;99.90;;;;;;5054650;28;20482;-56
2022/04/18 04:28:53;;;;;;;17.23;11.60;;;6.60;99.90;;;;;;5052777;28;20508;-56
2022/04/18 04:31:19;;;;;;;20.42;12.82;;;6.60;99.90;;;;;;5053733;28;20045;-55
2022/04/18 04:33:45;;;;;;;20.95;11.07;;;6.60;99.90;;;;;;5053680;28;20037;-56
2022/04/18 04:36:12;;;;;;;19.13;10.98;;;6.60;99.90;;;;;;5053658;28;20053;-56
2022/04/18 04:38:38;;;;;;;19.55;11.80;;;6.60;99.90;;;;;;5053846;28;20401;-56
2022/04/18 04:41:04;;;;;;;21.52;12.30;;;6.60;99.90;;;;;;5053617;28;20516;-57
2022/04/18 04:43:29;;;;;;;18.60;11.55;;;6.70;99.90;;;;;;5069116;28;20072;-56
2022/04/18 04:45:56;;;;;;;20.08;11.73;;;6.60;99.90;;;;;;5053592;28;20087;-58
2022/04/18 04:48:23;;;;;;;18.85;12.00;;;6.50;99.90;;;;;;5053590;28;20037;-57
2022/04/18 04:50:49;;;;;;;18.13;11.18;;;6.50;99.90;;;;;;5054850;28;20039;-59
2022/04/18 04:53:15;;;;;;;19.92;12.65;;;6.60;99.90;;;;;;5089663;28;20827;-56
2022/04/18 04:55:41;;;;;;;17.42;10.90;;;6.50;99.90;;;;;;5074192;28;20076;-56
2022/04/18 04:58:09;;;;;;;15.93;10.57;;;6.60;99.90;;;;;;5056009;28;20048;-56
2022/04/18 05:00:35;;;;;;;20.17;11.63;;;6.50;99.90;;;;;;5072459;28;20513;-56
2022/04/18 05:03:02;;;;;;;16.75;11.88;;;6.60;99.90;;;;;;5073441;28;20040;-57
2022/04/18 05:05:28;;;;;;;18.45;12.05;;;6.50;99.90;;;;;;5071995;28;20440;-56
2022/04/18 05:07:53;;;;;;;17.65;10.93;;;6.50;99.90;;;;;;5073167;28;20134;-55
2022/04/18 05:10:19;;;;;;;17.63;10.60;;;6.60;99.90;;;;;;5073128;28;20515;-56
2022/04/18 05:12:45;;;;;;;18.17;11.32;;;6.50;99.90;;;;;;5072246;28;20067;-55
2022/04/18 05:15:10;;;;;;;17.05;10.90;;;6.60;99.90;;;;;;5071685;28;20055;-54
2022/04/18 05:17:36;;;;;;;16.30;10.40;;;6.60;99.90;;;;;;5072821;28;20449;-55
2022/04/18 05:20:04;;;;;;;15.82;10.18;;;6.70;99.90;;;;;;5073136;28;20043;-55
2022/04/18 05:22:30;;;;;;;17.30;10.82;;;6.70;99.90;;;;;;5069224;28;20044;-56
2022/04/18 05:24:56;;;;;;;15.35;10.65;;;6.60;99.90;;;;;;5051721;28;20045;-56
2022/04/18 05:27:22;;;;;;;15.15;10.30;;;6.80;99.90;;;;;;5051755;28;20052;-56
2022/04/18 05:29:48;;;;;;;17.83;10.30;;;6.80;99.90;;;;;;5067041;28;20404;-55
2022/04/18 05:32:14;;;;;;;16.30;10.57;;;6.90;99.90;;;;;;5051353;28;20059;-56
2022/04/18 05:34:40;;;;;;;15.85;9.65;;;6.90;99.90;;;;;;5051524;28;20120;-56
2022/04/18 05:37:07;;;;;;;17.27;9.88;;;6.90;99.90;;;;;;5049985;28;20114;-56
2022/04/18 05:39:33;;;;;;;15.75;10.35;;;7.00;99.90;;;;;;5051109;28;20033;-55
2022/04/18 05:41:59;;;;;;;17.23;10.90;;;7.00;99.90;;;;;;5050971;28;20102;-56
2022/04/18 05:44:25;;;;;;;19.55;10.82;;;7.00;99.90;;;;;;5051359;28;20045;-56
2022/04/18 05:46:51;;;;;;;16.42;10.55;;;7.10;99.90;;;;;;5051119;28;20404;-55
2022/04/18 05:49:17;;;;;;;19.00;11.07;;;7.10;99.90;;;;;;5051170;28;20444;-56
2022/04/18 05:51:42;;;;;;;14.43;9.88;;;7.20;99.90;;;;;;5053739;28;20032;-57
2022/04/18 05:54:09;;;;;;;16.80;10.98;;;7.30;99.90;;;;;;5069709;28;20412;-56
2022/04/18 05:56:35;;;;;;;16.20;11.30;;;7.40;99.90;;;;;;5070908;28;20509;-56
2022/04/18 05:59:01;;;;;;;18.70;10.52;;;7.50;99.90;;;;;;5069488;28;20085;-56
2022/04/18 06:01:28;;;;;;;14.13;9.05;;;7.60;99.90;;;;;;5070876;28;20068;-56
2022/04/18 06:03:55;;;;;;;14.90;10.30;;;7.60;99.90;;;;;;5071071;28;20083;-56
2022/04/18 06:06:21;;;;;;;16.95;10.10;;;7.70;99.90;;;;;;5071244;28;20040;-56
2022/04/18 06:08:46;;;;;;;17.13;10.18;;;7.80;99.90;;;;;;5071164;28;20052;-56
2022/04/18 06:11:12;;;;;;;15.00;9.43;;;7.90;99.90;;;;;;5070786;28;20083;-57
2022/04/18 06:13:38;;;;;;;17.75;11.02;;;7.90;99.90;;;;;;5040507;28;20055;-56
2022/04/18 06:16:04;;;;;;;16.70;10.27;;;8.00;99.90;;;;;;5041352;28;20123;-56
2022/04/18 06:18:29;;;;;;;15.75;10.00;;;8.00;99.90;;;;;;5042395;28;20048;-56
2022/04/18 06:20:55;;;;;;;15.20;9.85;;;8.20;99.90;;;;;;5048017;28;20033;-56
2022/04/18 06:23:21;;;;;;;15.40;9.85;;;8.20;99.90;;;;;;5041470;28;20040;-56
2022/04/18 06:25:46;;;;;;;13.63;9.35;;;8.30;99.90;;;;;;5033679;28;20060;-56
2022/04/18 06:28:12;;;;;;;16.27;10.27;;;8.40;99.90;;;;;;5035017;28;20051;-55
2022/04/18 06:30:38;;;;;;;17.50;9.20;;;8.50;99.90;;;;;;5036332;28;20519;-56
2022/04/18 06:33:04;;;;;;;16.67;10.00;;;8.40;99.90;;;;;;5043248;28;20575;-55
2022/04/18 06:35:30;;;;;;;13.38;9.10;;;8.50;99.90;;;;;;5052116;28;20041;-56
2022/04/18 06:37:56;;;;;;;17.00;9.68;;;8.70;99.90;;;;;;5054697;28;20057;-56
2022/04/18 06:40:22;;;;;;;13.95;9.90;;;8.70;99.90;;;;;;5054547;28;20037;-57
2022/04/18 06:42:47;;;;;;;15.35;9.55;;;8.80;99.90;;;;;;5054251;28;20044;-56
2022/04/18 06:45:13;;;;;;;16.13;9.65;;;8.90;99.90;;;;;;5054308;28;20129;-56
2022/04/18 06:47:39;;;;;;;15.20;9.70;;;8.90;99.90;;;;;;5054451;28;20434;-57
2022/04/18 06:50:11;;;;;;;15.82;9.40;;;9.00;99.90;;;;;;5053587;28;20049;-54
2022/04/18 06:52:41;;;;;;;14.95;9.40;;;9.10;99.90;;;;;;5064102;28;20265;-55
2022/04/18 06:55:08;;;;;;;15.45;8.60;;;9.20;99.90;;;;;;5072908;28;20066;-55
2022/04/18 06:57:34;;;;;;;16.35;9.98;;;9.30;99.90;;;;;;5074027;28;20036;-56
2022/04/18 07:00:00;;;;;;;15.10;9.30;;;9.40;99.90;;;;;;5056254;28;20048;-56
2022/04/18 07:02:26;;;;;;;13.75;9.10;;;9.50;99.90;;;;;;5073100;28;20106;-55
2022/04/18 07:04:52;;;;;;;14.45;9.30;;;9.50;99.90;;;;;;5074056;28;20420;-54
2022/04/18 07:07:17;;;;;;;15.18;9.10;;;9.60;99.90;;;;;;5074023;28;20544;-55
2022/04/18 07:09:43;;;;;;;15.82;9.35;;;9.70;99.90;;;;;;5074165;28;20052;-56
2022/04/18 07:12:09;;;;;;;14.23;9.13;;;9.90;99.90;;;;;;5074305;28;20048;-56
2022/04/18 07:14:38;;;;;;;13.57;8.45;;;9.90;99.90;;;;;;5072835;28;20044;-56
2022/04/18 07:17:06;;;;;;;15.57;8.70;;;10.10;99.90;;;;;;5073809;28;20040;-56
2022/04/18 07:19:33;;;;;;;14.45;8.90;;;10.20;99.90;;;;;;5073883;28;20051;-56
2022/04/18 07:21:59;;;;;;;13.93;8.98;;;10.30;99.90;;;;;;5073835;28;20117;-58
2022/04/18 07:24:25;;;;;;;13.82;9.02;;;10.40;99.90;;;;;;5055522;28;20045;-56
2022/04/18 07:26:51;;;;;;;14.15;8.05;;;10.50;99.90;;;;;;5054003;28;20052;-56
2022/04/18 07:29:17;;;;;;;13.15;8.30;;;10.60;99.70;;;;;;5062841;28;20064;-55
2022/04/18 07:31:43;;;;;;;13.43;8.48;;;10.70;99.40;;;;;;5039642;28;20049;-56
2022/04/18 07:34:09;;;;;;;13.52;8.18;;;10.80;99.00;;;;;;5054047;28;20039;-55
2022/04/18 07:36:35;;;;;;;15.85;8.98;;;11.00;98.60;;;;;;5052792;28;20045;-56
2022/04/18 07:39:01;;;;;;;13.10;8.45;;;11.00;98.70;;;;;;5053796;28;20045;-56
2022/04/18 07:41:29;;;;;;;12.75;8.27;;;11.20;98.00;;;;;;5053427;28;20037;-56
2022/04/18 07:43:56;;;;;;;13.73;8.63;;;11.20;98.60;;;;;;5053416;28;20041;-56
2022/04/18 07:46:22;;;;;;;13.68;8.95;;;11.30;98.50;;;;;;5053685;28;20037;-55
2022/04/18 07:48:49;;;;;;;14.75;8.82;;;11.50;98.10;;;;;;5053531;28;20036;-56
2022/04/18 07:54:01;;;;;;;13.85;8.40;;;11.60;97.70;;;;;;5033113;28;20056;-56
2022/04/18 07:56:28;;;;;;;15.75;8.70;;;11.80;98.10;;;;;;5033464;28;20040;-56
2022/04/18 07:58:54;;;;;;;13.43;9.00;;;11.80;97.90;;;;;;5031940;28;20041;-55
2022/04/18 08:01:20;;;;;;;12.73;7.85;;;11.90;97.50;;;;;;5033310;28;20112;-55
2022/04/18 08:03:47;;;;;;;13.85;7.85;;;12.00;97.80;;;;;;5031935;28;20037;-55
2022/04/18 08:06:13;;;;;;;12.77;8.25;;;12.00;95.90;;;;;;5033593;28;20043;-56
2022/04/18 08:08:39;;;;;;;14.57;8.90;;;12.10;95.70;;;;;;5032989;28;20050;-56
2022/04/18 08:11:05;;;;;;;14.18;8.20;;;12.20;94.20;;;;;;5032865;28;20448;-57
2022/04/18 08:13:31;;;;;;;12.68;7.95;;;12.30;94.70;;;;;;5033137;28;20073;-55
2022/04/18 08:15:57;;;;;;;13.80;8.77;;;12.40;94.90;;;;;;5032850;28;20037;-56
2022/04/18 08:18:23;;;;;;;14.52;8.70;;;12.50;94.60;;;;;;5033125;28;20045;-55
2022/04/18 08:20:49;;;;;;;14.20;9.05;;;12.50;94.60;;;;;;5032781;28;20075;-55
2022/04/18 08:23:16;;;;;;;14.70;8.00;;;12.50;93.90;;;;;;5042475;28;20049;-56
2022/04/18 08:25:41;;;;;;;13.10;7.82;;;12.60;94.30;;;;;;5053751;28;20095;-56
2022/04/18 08:28:08;;;;;;;13.45;8.70;;;12.80;94.80;;;;;;5053961;28;20040;-56
2022/04/18 08:30:34;;;;;;;18.20;7.90;;;12.80;94.30;;;;;;5053599;28;20036;-55
2022/04/18 08:32:59;;;;;;;15.20;8.55;;;12.90;94.60;;;;;;5053270;28;20041;-56
2022/04/18 08:35:26;;;;;;;17.73;8.32;;;12.90;93.80;;;;;;5053666;28;20469;-56
2022/04/18 08:37:51;;;;;;;13.07;8.25;;;13.00;93.50;;;;;;5052818;28;20080;-56
2022/04/18 08:40:18;;;;;;;11.82;7.10;;;13.10;93.40;;;;;;5053146;28;20104;-56
2022/04/18 08:42:44;;;;;;;11.52;8.13;;;13.20;93.90;;;;;;5035106;28;20124;-56
2022/04/18 08:45:12;;;;;;;14.85;8.18;;;13.30;93.50;;;;;;5052586;28;20128;-56
2022/04/18 08:53:10;;;;;;;14.98;8.43;;;13.50;93.00;;;;;;5067755;28;20164;-56
2022/04/18 08:55:37;;;;;;;13.57;8.25;;;13.60;92.80;;;;;;5073145;28;20523;-56
2022/04/18 08:58:04;;;;;;;14.25;8.38;;;13.70;92.40;;;;;;5071299;28;20323;-56
2022/04/18 09:00:30;;;;;;;18.10;8.00;;;13.80;92.10;;;;;;5072011;28;20036;-55
2022/04/18 09:02:55;;;;;;;12.30;7.82;;;13.80;92.20;;;;;;5073015;28;20041;-56
2022/04/18 09:05:21;;;;;;;24.45;10.40;;;13.90;91.70;;;;;;5072166;28;20040;-56
2022/04/18 09:08:05;;;;;;;13.98;8.45;;;13.90;92.50;;;;;;5072356;28;20459;-58
2022/04/18 09:10:32;;;;;;;14.60;8.85;;;14.00;91.90;;;;;;5072076;28;20037;-57
2022/04/18 09:13:23;;;;;;;11.65;7.30;;;14.10;91.80;;;;;;5072287;28;20392;-55
2022/04/18 09:15:49;;;;;;;11.85;7.30;;;14.10;90.90;;;;;;5072549;28;20040;-56
2022/04/18 09:18:20;;;;;;;13.25;8.40;;;14.10;89.50;;;;;;5071963;28;20045;-56
2022/04/18 09:20:50;;;;;;;13.30;8.57;;;14.20;90.20;;;;;;5062790;28;20045;-56
2022/04/18 09:23:30;;;;;;;12.13;8.13;;;14.20;90.70;;;;;;5046246;28;20045;-56
2022/04/18 09:26:00;;;;;;;14.20;8.07;;;14.30;89.70;;;;;;5044625;28;20172;-55
2022/04/18 09:28:29;;;;;;;12.73;7.68;;;14.40;89.90;;;;;;5038645;28;20099;-56
2022/04/18 09:31:05;;;;;;;13.13;7.75;;;14.60;90.20;;;;;;5039989;28;20067;-55
2022/04/18 09:33:38;;;;;;;11.68;7.47;;;14.60;88.80;;;;;;5037874;28;20033;-56
2022/04/18 09:36:30;;;;;;;12.68;7.50;;;14.70;89.30;;;;;;5032453;28;20045;-55
2022/04/18 09:38:57;;;;;;;13.38;6.95;;;14.80;88.80;;;;;;5031994;28;20498;-56
2022/04/18 09:41:23;;;;;;;12.38;7.57;;;14.80;87.70;;;;;;5031192;28;20155;-56
2022/04/18 09:43:51;;;;;;;13.40;7.20;;;14.80;88.20;;;;;;5032220;28;20053;-55
2022/04/18 09:46:17;;;;;;;12.02;7.15;;;14.90;90.00;;;;;;5032282;28;20034;-57
2022/04/18 09:48:44;;;;;;;16.80;7.72;;;15.00;90.10;;;;;;5032445;28;20045;-56
2022/04/18 09:51:12;;;;;;;12.32;7.50;;;15.20;90.10;;;;;;5031629;28;20397;-56
2022/04/18 09:53:40;;;;;;;12.65;7.05;;;15.20;86.40;;;;;;5069543;28;20472;-56
2022/04/18 09:56:07;;;;;;;11.75;6.72;;;15.30;85.40;;;;;;5072201;28;20037;-56
2022/04/18 09:58:34;;;;;;;12.73;6.45;;;15.40;84.90;;;;;;5071845;28;20041;-56
2022/04/18 10:01:03;;;;;;;11.95;6.65;;;15.50;85.70;;;;;;5070784;28;20051;-56
2022/04/18 10:03:30;;;;;;;11.07;7.47;;;15.50;85.40;;;;;;5072003;28;20052;-56
2022/04/18 10:05:57;;;;;;;11.52;7.35;;;15.70;85.40;;;;;;5072342;28;20054;-56
2022/04/18 10:08:23;;;;;;;11.73;6.78;;;15.70;84.00;;;;;;5070900;28;20040;-57
2022/04/18 10:10:49;;;;;;;15.85;6.55;;;15.70;85.40;;;;;;5072013;28;20048;-56
2022/04/18 10:13:15;;;;;;;10.68;6.50;;;15.70;85.00;;;;;;5072163;28;20048;-56
2022/04/18 10:15:41;;;;;;;10.82;6.25;;;15.90;85.60;;;;;;5072161;28;20106;-56
2022/04/18 10:18:10;;;;;;;11.35;6.70;;;16.10;82.50;;;;;;5072014;28;20036;-57
2022/04/18 10:20:49;;;;;;;11.52;6.10;;;16.20;83.30;;;;;;5072080;28;20048;-56
2022/04/18 10:23:46;;;;;;;9.80;5.63;;;16.20;82.20;;;;;;5063400;28;20079;-57
2022/04/18 10:26:31;;;;;;;9.80;5.93;;;16.10;78.80;;;;;;5044213;28;20049;-57
2022/04/18 10:29:03;;;;;;;9.32;5.90;;;16.20;79.00;;;;;;5035027;28;20259;-56
2022/04/18 10:31:33;;;;;;;10.15;5.70;;;16.30;78.90;;;;;;5032136;28;20050;-56
2022/04/18 10:33:59;;;;;;;10.40;5.85;;;16.40;78.70;;;;;;5031765;28;20535;-56
2022/04/18 10:36:33;;;;;;;9.48;5.93;;;16.30;77.30;;;;;;5046839;28;20409;-56
2022/04/18 10:39:06;;;;;;;9.57;4.82;;;16.50;78.60;;;;;;5032076;28;20057;-56
2022/04/18 10:41:44;;;;;;;12.13;6.07;;;16.50;69.80;;;;;;5032282;28;20037;-56
2022/04/18 10:44:13;;;;;;;13.75;7.20;;;16.50;73.00;;;;;;5031794;28;20037;-56
2022/04/18 10:47:03;;;;;;;12.55;6.25;;;16.60;74.80;;;;;;5031659;28;20539;-56
2022/04/18 10:49:31;;;;;;;16.73;6.28;;;16.80;76.60;;;;;;5031289;28;20041;-56
2022/04/18 10:52:08;;;;;;;9.15;5.65;;;16.90;75.70;;;;;;5041589;28;20067;-56
2022/04/18 10:54:34;;;;;;;11.20;5.85;;;16.90;74.50;;;;;;5071686;28;20060;-56
2022/04/18 10:57:11;;;;;;;8.25;4.65;;;17.00;75.40;;;;;;5071398;28;20473;-56
2022/04/18 10:59:48;;;;;;;10.85;5.05;;;17.10;72.30;;;;;;5071618;28;20044;-56
2022/04/18 11:02:37;;;;;;;7.28;3.92;;;17.20;71.50;;;;;;5071404;28;20127;-56
2022/04/18 11:05:03;;;;;;;10.90;5.20;;;17.10;65.60;;;;;;5071195;28;20373;-57
2022/04/18 11:07:39;;;;;;;7.20;4.35;;;17.20;69.40;;;;;;5071139;28;20048;-57
2022/04/18 11:10:37;;;;;;;8.40;4.25;;;17.20;67.60;;;;;;5071360;28;20037;-56
2022/04/18 11:13:03;;;;;;;9.02;3.70;;;17.30;67.70;;;;;;5074795;28;20060;-57
2022/04/18 11:15:28;;;;;;;7.38;2.97;;;17.40;66.10;;;;;;5075097;28;20044;-57
2022/04/18 11:18:00;;;;;;;6.10;3.00;;;17.40;63.70;;;;;;5074718;28;20420;-56
2022/04/18 11:20:27;;;;;;;;;;;17.50;64.00;;;;;;5075480;28;20060;-55
2022/04/18 11:23:15;;;;;;;8.15;3.72;;;17.60;63.00;;;;;;5068488;28;19928;-56
2022/04/18 11:26:01;;;;;;;6.68;3.30;;;17.30;58.70;;;;;;5054586;28;20444;-54
2022/04/18 11:28:36;;;;;;;6.93;3.92;;;17.70;63.40;;;;;;5054716;28;20041;-56
2022/04/18 11:31:17;;;;;;;7.78;4.53;;;17.60;61.90;;;;;;5054923;28;20037;-52
2022/04/18 11:33:43;;;;;;;8.73;3.90;;;17.60;62.40;;;;;;5054465;28;20037;-56
2022/04/18 11:36:11;;;;;;;7.20;3.38;;;17.60;61.30;;;;;;5054408;28;20040;-56
2022/04/18 11:38:37;;;;;;;7.22;3.88;;;17.80;61.10;;;;;;5054081;28;20056;-56
2022/04/18 11:41:13;;;;;;;7.25;3.25;;;17.80;57.80;;;;;;5054017;28;20037;-56
2022/04/18 11:43:39;;;;;;;7.10;3.75;;;17.90;61.00;;;;;;5054909;28;20051;-56
2022/04/18 11:46:08;;;;;;;7.75;3.67;;;18.00;61.50;;;;;;5054388;28;20120;-56
2022/04/18 11:48:35;;;;;;;8.23;3.80;;;18.00;57.80;;;;;;5070243;28;20174;-56
2022/04/18 11:51:01;;;;;;;6.22;3.58;;;17.90;55.80;;;;;;5054413;28;20045;-56
2022/04/18 11:53:34;;;;;;;6.18;3.35;;;17.80;57.60;;;;;;5069634;28;20044;-56
2022/04/18 11:56:04;;;;;;;7.18;4.40;;;18.00;57.30;;;;;;5054729;28;20037;-56
2022/04/18 11:58:35;;;;;;;7.13;3.70;;;18.10;58.20;;;;;;5054515;28;20076;-55
2022/04/18 12:06:49;;;;;;;7.70;3.97;;;18.50;60.00;;;;;;5054946;28;20051;-58
2022/04/18 12:09:17;;;;;;;6.32;3.17;;;18.40;59.10;;;;;;5054329;28;20044;-56
2022/04/18 12:11:43;;;;;;;7.13;4.03;;;18.60;60.10;;;;;;5054050;28;20052;-56
2022/04/18 12:14:12;;;;;;;6.68;3.65;;;18.60;57.30;;;;;;5054091;28;20052;-56
2022/04/18 12:16:41;;;;;;;8.10;3.78;;;18.60;59.10;;;;;;5052916;28;20056;-56
2022/04/18 12:19:11;;;;;;;6.60;3.10;;;18.60;57.30;;;;;;5054043;28;20048;-57
2022/04/18 12:21:37;;;;;;;8.63;4.07;;;18.60;56.20;;;;;;5053813;28;20083;-56
2022/04/18 12:24:04;;;;;;;9.43;4.00;;;18.80;57.90;;;;;;5052605;28;20041;-57
2022/04/18 12:26:33;;;;;;;6.15;3.28;;;18.80;57.20;;;;;;5054106;28;20045;-56
2022/04/18 12:29:04;;;;;;;6.38;3.35;;;18.90;56.70;;;;;;5053943;28;20060;-55
2022/04/18 12:31:30;;;;;;;7.03;3.50;;;18.80;57.20;;;;;;5053851;28;20036;-56
2022/04/18 12:33:56;;;;;;;8.07;3.88;;;18.70;56.80;;;;;;5053967;28;20119;-56
2022/04/18 12:36:39;;;;;;;8.52;3.75;;;18.90;57.90;;;;;;5053807;28;20053;-56
2022/04/18 12:39:06;;;;;;;7.15;3.88;;;19.00;55.60;;;;;;5054115;28;20107;-56
2022/04/18 12:41:33;;;;;;;6.13;3.28;;;19.00;56.40;;;;;;5053680;28;20084;-56
2022/04/18 12:43:59;;;;;;;7.30;3.92;;;19.10;56.10;;;;;;5052487;28;20156;-57
2022/04/18 12:46:30;;;;;;;7.90;3.47;;;19.10;55.00;;;;;;5053909;28;20044;-56
2022/04/18 12:48:56;;;;;;;9.67;3.37;;;19.00;53.40;;;;;;5053620;28;20048;-56
2022/04/18 12:51:51;;;;;;;8.50;3.75;;;19.00;55.90;;;;;;5052096;28;20063;-56
2022/04/18 12:54:22;;;;;;;7.60;3.67;;;19.00;53.00;;;;;;5044626;28;20049;-56
2022/04/18 12:56:53;;;;;;;8.70;3.85;;;19.10;54.60;;;;;;5053719;28;20037;-57
2022/04/18 12:59:27;;;;;;;10.40;3.60;;;19.30;56.80;;;;;;5053593;28;20112;-55
2022/04/18 13:02:04;;;;;;;6.45;3.33;;;19.20;54.10;;;;;;5053426;28;20037;-55
2022/04/18 13:04:30;;;;;;;8.30;3.63;;;19.20;55.10;;;;;;5053541;28;20111;-55
2022/04/18 13:07:06;;;;;;;7.72;4.03;;;19.10;53.50;;;;;;5053288;28;20115;-54